Saint-Simon-De-Rimouski, Canada
Current Conditions -  °F | °C
As of 6:00 PM on Sunday 21 Dec 2014 (Local Time) from CYYY Reporting Station
Light Snow Light Snow  
Wind Chill: -7°   Ceiling: 1300
Heat Index: -7°   Visibility: 30mi
Dew Point: -10°   Wind: 3mph
Humidity: 80%   Direction: 160°SSE
Pressure: 30.39"   Gusts: NA
Location:  48.2°N, 69.02°W
Report Text: CYYY 212300Z 16003KT 30SM -SN OVC013 M07/M10 A3039 RMK SC8 SLP295
Loading
Personal Weather Stations






























Interactive Weather Map New forecast layout! Learn more

10-Day Weather Forecast

Advertisements
Track Severe Weather on mobile